Time,TemperatureF,DewpointF,PressureIn,WindDirection,WindDirectionDegrees,WindSpeedMPH,WindSpeedGustMPH,Humidity,HourlyPrecipIn,Conditions,Clouds,dailyrainin,SolarRadiationWatts/m^2,SoftwareType,DateUTC
2013-09-26 00:04:00,60.0,60.0,-100.00,East,95,1.0,3.0,99,0.00,,,1.10,0.000000,,2013-09-26 04:04:00,
2013-09-26 00:44:00,59.0,59.0,-100.00,East,82,1.0,4.0,99,0.00,,,1.10,0.000000,,2013-09-26 04:44:00,
2013-09-26 00:54:00,59.0,59.0,-100.00,East,82,1.0,4.0,99,0.00,,,1.10,0.000000,,2013-09-26 04:54:00,
2013-09-26 01:04:00,59.0,59.0,-100.00,East,82,1.0,4.0,99,0.00,,,1.10,0.000000,,2013-09-26 05:04:00,
2013-09-26 01:43:00,59.0,59.0,-100.00,NNE,29,1.0,3.0,99,0.01,,,1.11,0.000000,,2013-09-26 05:43:00,
2013-09-26 01:52:00,59.0,59.0,-100.00,NNE,29,1.0,3.0,99,0.01,,,1.11,0.000000,,2013-09-26 05:52:00,
2013-09-26 02:02:00,59.0,59.0,-100.00,NNE,29,1.0,3.0,99,0.01,,,1.11,0.000000,,2013-09-26 06:02:00,
2013-09-26 02:42:00,59.0,59.0,-100.00,NE,45,1.0,4.0,99,0.00,,,1.11,0.000000,,2013-09-26 06:42:00,
2013-09-26 02:54:00,59.0,59.0,-100.00,NE,45,1.0,4.0,99,0.00,,,1.11,0.000000,,2013-09-26 06:54:00,
2013-09-26 03:02:00,59.0,59.0,-100.00,NE,45,1.0,4.0,99,0.00,,,1.11,0.000000,,2013-09-26 07:02:00,
2013-09-26 03:42:00,59.0,59.0,-100.00,NW,312,2.0,3.0,99,0.00,,,1.11,0.000000,,2013-09-26 07:42:00,
2013-09-26 03:53:00,59.0,59.0,-100.00,NW,312,2.0,3.0,99,0.00,,,1.11,0.000000,,2013-09-26 07:53:00,
2013-09-26 04:03:00,59.0,59.0,-100.00,NW,312,2.0,3.0,99,0.00,,,1.11,0.000000,,2013-09-26 08:03:00,
2013-09-26 04:42:00,59.0,59.0,-100.00,NW,312,3.0,4.0,99,0.00,,,1.10,0.000000,,2013-09-26 08:42:00,
2013-09-26 04:52:00,59.0,59.0,-100.00,NW,312,3.0,4.0,99,0.00,,,1.10,0.000000,,2013-09-26 08:52:00,
2013-09-26 05:02:00,59.0,59.0,-100.00,NW,312,3.0,4.0,99,0.00,,,1.10,0.000000,,2013-09-26 09:02:00,
2013-09-26 05:43:00,59.0,59.0,-100.00,NW,317,2.0,4.0,99,0.00,,,1.07,0.000000,,2013-09-26 09:43:00,
2013-09-26 05:54:00,59.0,59.0,-100.00,NW,317,2.0,4.0,99,0.00,,,1.07,0.000000,,2013-09-26 09:54:00,
2013-09-26 06:03:00,59.0,59.0,-100.00,NW,317,2.0,4.0,99,0.00,,,1.07,0.000000,,2013-09-26 10:03:00,
2013-09-26 09:42:00,61.0,60.0,-100.00,WNW,298,0.0,4.0,97,-99.99,,,0.17,82.000000,,2013-09-26 13:42:00,
2013-09-26 09:52:00,61.0,60.0,-100.00,WNW,298,0.0,4.0,97,-99.99,,,0.17,82.000000,,2013-09-26 13:52:00,
2013-09-26 10:02:00,61.0,60.0,-100.00,WNW,298,0.0,4.0,97,-99.99,,,0.17,82.000000,,2013-09-26 14:02:00,
2013-09-26 10:42:00,64.0,62.0,-100.00,SE,131,1.0,3.0,93,0.00,,,-99.99,170.000000,,2013-09-26 14:42:00,
2013-09-26 10:52:00,64.0,62.0,-100.00,SE,131,1.0,3.0,93,0.00,,,-99.99,170.000000,,2013-09-26 14:52:00,
2013-09-26 11:02:00,64.0,62.0,-100.00,SE,131,1.0,3.0,93,0.00,,,-99.99,170.000000,,2013-09-26 15:02:00,
2013-09-26 11:44:00,67.0,63.0,-100.00,South,189,2.0,4.0,86,0.00,,,-99.99,358.000000,,2013-09-26 15:44:00,
2013-09-26 11:54:00,67.0,63.0,-100.00,South,189,2.0,4.0,86,0.00,,,-99.99,358.000000,,2013-09-26 15:54:00,
2013-09-26 12:04:00,67.0,63.0,-100.00,South,189,2.0,4.0,86,0.00,,,-99.99,358.000000,,2013-09-26 16:04:00,
2013-09-26 12:43:00,68.0,61.0,-100.00,SE,140,2.0,6.0,77,0.00,,,-99.99,505.000000,,2013-09-26 16:43:00,
2013-09-26 12:54:00,68.0,61.0,-100.00,SE,140,2.0,6.0,77,0.00,,,-99.99,505.000000,,2013-09-26 16:54:00,
2013-09-26 13:04:00,68.0,61.0,-100.00,SE,140,2.0,6.0,77,0.00,,,-99.99,505.000000,,2013-09-26 17:04:00,
2013-09-26 13:43:00,70.0,61.0,-100.00,South,172,2.0,4.0,73,0.00,,,0.05,479.000000,,2013-09-26 17:43:00,
2013-09-26 13:53:00,70.0,61.0,-100.00,South,172,2.0,4.0,73,0.00,,,0.05,479.000000,,2013-09-26 17:53:00,
2013-09-26 14:02:00,70.0,61.0,-100.00,South,172,2.0,4.0,73,0.00,,,0.05,479.000000,,2013-09-26 18:02:00,
2013-09-26 14:42:00,70.0,64.0,-100.00,East,98,2.0,5.0,80,0.00,,,0.03,316.000000,,2013-09-26 18:42:00,
2013-09-26 14:52:00,70.0,64.0,-100.00,East,98,2.0,5.0,80,0.00,,,0.03,316.000000,,2013-09-26 18:52:00,
2013-09-26 15:03:00,70.0,64.0,-100.00,East,98,2.0,5.0,80,0.00,,,0.03,316.000000,,2013-09-26 19:03:00,
2013-09-26 15:44:00,73.0,64.0,-100.00,ESE,109,3.0,4.0,73,0.00,,,0.02,554.000000,,2013-09-26 19:44:00,
2013-09-26 15:52:00,73.0,64.0,-100.00,ESE,109,3.0,4.0,73,0.00,,,0.02,554.000000,,2013-09-26 19:52:00,
2013-09-26 16:03:00,73.0,64.0,-100.00,ESE,109,3.0,4.0,73,0.00,,,0.02,554.000000,,2013-09-26 20:03:00,
2013-09-26 16:43:00,71.0,62.0,-100.00,SE,127,2.0,4.0,73,0.00,,,0.01,242.000000,,2013-09-26 20:43:00,
2013-09-26 16:52:00,71.0,62.0,-100.00,SE,127,2.0,4.0,73,0.00,,,0.01,242.000000,,2013-09-26 20:52:00,
2013-09-26 17:02:00,71.0,62.0,-100.00,SE,127,2.0,4.0,73,0.00,,,0.01,242.000000,,2013-09-26 21:02:00,
2013-09-26 17:44:00,72.0,62.0,-100.00,SE,144,1.0,4.0,71,0.00,,,0.01,357.000000,,2013-09-26 21:44:00,
2013-09-26 17:54:00,72.0,62.0,-100.00,SE,144,1.0,4.0,71,0.00,,,0.01,357.000000,,2013-09-26 21:54:00,
2013-09-26 18:04:00,72.0,62.0,-100.00,SE,144,1.0,4.0,71,0.00,,,0.01,357.000000,,2013-09-26 22:04:00,
2013-09-26 18:43:00,70.0,62.0,-100.00,SE,124,2.0,4.0,75,0.00,,,0.01,125.000000,,2013-09-26 22:43:00,
2013-09-26 18:54:00,70.0,62.0,-100.00,SE,124,2.0,4.0,75,0.00,,,0.01,125.000000,,2013-09-26 22:54:00,
2013-09-26 19:03:00,70.0,62.0,-100.00,SE,124,2.0,4.0,75,0.00,,,0.01,125.000000,,2013-09-26 23:03:00,
2013-09-26 19:43:00,67.0,63.0,-100.00,East,87,1.0,4.0,87,0.00,,,0.01,44.000000,,2013-09-26 23:43:00,
2013-09-26 19:53:00,67.0,63.0,-100.00,East,87,1.0,4.0,87,0.00,,,0.01,44.000000,,2013-09-26 23:53:00,
2013-09-26 20:02:00,67.0,63.0,-100.00,East,87,1.0,4.0,87,0.00,,,0.01,44.000000,,2013-09-27 00:02:00,
2013-09-26 20:43:00,65.0,62.0,-100.00,ENE,69,1.0,4.0,89,0.00,,,0.01,2.000000,,2013-09-27 00:43:00,
2013-09-26 20:52:00,65.0,62.0,-100.00,ENE,69,1.0,4.0,89,0.00,,,0.01,2.000000,,2013-09-27 00:52:00,
2013-09-26 21:01:00,65.0,62.0,-100.00,ENE,69,1.0,4.0,89,0.00,,,0.01,2.000000,,2013-09-27 01:01:00,
2013-09-26 21:42:00,63.0,60.0,-100.00,WNW,300,1.0,3.0,89,0.00,,,-99.99,0.000000,,2013-09-27 01:42:00,
2013-09-26 21:52:00,63.0,60.0,-100.00,WNW,300,1.0,3.0,89,0.00,,,-99.99,0.000000,,2013-09-27 01:52:00,
2013-09-26 22:02:00,63.0,60.0,-100.00,WNW,300,1.0,3.0,89,0.00,,,-99.99,0.000000,,2013-09-27 02:02:00,
2013-09-26 22:43:00,61.0,59.0,-100.00,WNW,298,2.0,4.0,94,0.00,,,0.01,0.000000,,2013-09-27 02:43:00,
2013-09-26 22:53:00,61.0,59.0,-100.00,WNW,298,2.0,4.0,94,0.00,,,0.01,0.000000,,2013-09-27 02:53:00,
2013-09-26 23:02:00,61.0,59.0,-100.00,WNW,298,2.0,4.0,94,0.00,,,0.01,0.000000,,2013-09-27 03:02:00,
2013-09-26 23:06:00,60.0,59.0,-100.00,WNW,298,2.0,4.0,96,0.00,,,0.01,0.000000,,2013-09-27 03:06:00,
2013-09-26 23:45:00,60.0,59.0,-100.00,WNW,298,2.0,4.0,96,0.00,,,0.01,0.000000,,2013-09-27 03:45:00,
2013-09-26 23:55:00,60.0,59.0,-100.00,WNW,298,2.0,4.0,96,0.00,,,0.01,0.000000,,2013-09-27 03:55:00,